sensor_id;sensor_type;location;lat;lon;timestamp;P1;durP1;ratioP1;P2;durP2;ratioP2
1414;SDS011;702;49.466;11.086;2023-08-07T00:00:21;0.40;;;0.40;;
1414;SDS011;702;49.466;11.086;2023-08-07T00:02:48;0.87;;;0.67;;
1414;SDS011;702;49.466;11.086;2023-08-07T00:05:15;0.90;;;0.30;;
1414;SDS011;702;49.466;11.086;2023-08-07T00:07:42;0.63;;;0.40;;
1414;SDS011;702;49.466;11.086;2023-08-07T00:10:10;0.60;;;0.50;;
1414;SDS011;702;49.466;11.086;2023-08-07T00:12:38;0.70;;;0.50;;
1414;SDS011;702;49.466;11.086;2023-08-07T00:15:06;0.50;;;0.30;;
1414;SDS011;702;49.466;11.086;2023-08-07T00:17:36;0.40;;;0.37;;
1414;SDS011;702;49.466;11.086;2023-08-07T00:20:04;0.50;;;0.30;;
1414;SDS011;702;49.466;11.086;2023-08-07T00:22:33;0.53;;;0.50;;
1414;SDS011;702;49.466;11.086;2023-08-07T00:25:00;0.40;;;0.30;;
1414;SDS011;702;49.466;11.086;2023-08-07T00:27:28;0.40;;;0.40;;
1414;SDS011;702;49.466;11.086;2023-08-07T00:29:55;0.50;;;0.40;;
1414;SDS011;702;49.466;11.086;2023-08-07T00:32:22;0.50;;;0.50;;
1414;SDS011;702;49.466;11.086;2023-08-07T00:34:51;0.93;;;0.50;;
1414;SDS011;702;49.466;11.086;2023-08-07T00:37:18;0.67;;;0.43;;
1414;SDS011;702;49.466;11.086;2023-08-07T00:39:45;0.80;;;0.60;;
1414;SDS011;702;49.466;11.086;2023-08-07T00:42:13;0.40;;;0.30;;
1414;SDS011;702;49.466;11.086;2023-08-07T00:44:40;1.20;;;0.40;;
1414;SDS011;702;49.466;11.086;2023-08-07T00:47:07;0.40;;;0.33;;
1414;SDS011;702;49.466;11.086;2023-08-07T00:49:35;0.30;;;0.30;;
1414;SDS011;702;49.466;11.086;2023-08-07T00:52:04;0.60;;;0.50;;
1414;SDS011;702;49.466;11.086;2023-08-07T00:54:32;0.60;;;0.60;;
1414;SDS011;702;49.466;11.086;2023-08-07T00:57:01;1.00;;;0.40;;
1414;SDS011;702;49.466;11.086;2023-08-07T00:59:40;0.53;;;0.40;;
1414;SDS011;702;49.466;11.086;2023-08-07T01:02:08;0.47;;;0.40;;
1414;SDS011;702;49.466;11.086;2023-08-07T01:04:37;1.50;;;0.40;;
1414;SDS011;702;49.466;11.086;2023-08-07T01:07:07;0.60;;;0.40;;
1414;SDS011;702;49.466;11.086;2023-08-07T01:09:34;0.60;;;0.40;;
1414;SDS011;702;49.466;11.086;2023-08-07T01:12:05;0.60;;;0.50;;
1414;SDS011;702;49.466;11.086;2023-08-07T01:14:42;1.20;;;0.50;;
1414;SDS011;702;49.466;11.086;2023-08-07T01:17:19;0.40;;;0.30;;
1414;SDS011;702;49.466;11.086;2023-08-07T01:19:49;0.87;;;0.50;;
1414;SDS011;702;49.466;11.086;2023-08-07T01:22:19;0.77;;;0.50;;
1414;SDS011;702;49.466;11.086;2023-08-07T01:24:47;0.50;;;0.50;;
1414;SDS011;702;49.466;11.086;2023-08-07T01:27:23;2.30;;;0.60;;
1414;SDS011;702;49.466;11.086;2023-08-07T01:30:07;1.73;;;0.60;;
1414;SDS011;702;49.466;11.086;2023-08-07T01:32:43;0.67;;;0.50;;
1414;SDS011;702;49.466;11.086;2023-08-07T01:35:20;0.70;;;0.60;;
1414;SDS011;702;49.466;11.086;2023-08-07T01:37:53;0.60;;;0.50;;
1414;SDS011;702;49.466;11.086;2023-08-07T01:40:22;0.83;;;0.80;;
1414;SDS011;702;49.466;11.086;2023-08-07T01:42:50;0.50;;;0.40;;
1414;SDS011;702;49.466;11.086;2023-08-07T01:45:22;1.10;;;0.83;;
1414;SDS011;702;49.466;11.086;2023-08-07T01:47:50;0.87;;;0.50;;
1414;SDS011;702;49.466;11.086;2023-08-07T01:50:18;1.70;;;0.80;;
1414;SDS011;702;49.466;11.086;2023-08-07T01:52:46;0.60;;;0.50;;
1414;SDS011;702;49.466;11.086;2023-08-07T01:55:15;0.70;;;0.70;;
1414;SDS011;702;49.466;11.086;2023-08-07T01:57:44;1.60;;;0.70;;
1414;SDS011;702;49.466;11.086;2023-08-07T02:00:12;1.20;;;0.77;;
1414;SDS011;702;49.466;11.086;2023-08-07T02:02:39;0.90;;;0.83;;
1414;SDS011;702;49.466;11.086;2023-08-07T02:05:07;0.60;;;0.60;;
1414;SDS011;702;49.466;11.086;2023-08-07T02:07:34;0.80;;;0.60;;
1414;SDS011;702;49.466;11.086;2023-08-07T02:10:01;1.53;;;0.80;;
1414;SDS011;702;49.466;11.086;2023-08-07T02:12:30;0.80;;;0.70;;
1414;SDS011;702;49.466;11.086;2023-08-07T02:14:58;0.70;;;0.70;;
1414;SDS011;702;49.466;11.086;2023-08-07T02:17:25;2.60;;;0.93;;
1414;SDS011;702;49.466;11.086;2023-08-07T02:19:55;0.93;;;0.80;;
1414;SDS011;702;49.466;11.086;2023-08-07T02:22:22;2.73;;;0.97;;
1414;SDS011;702;49.466;11.086;2023-08-07T02:24:50;0.90;;;0.80;;
1414;SDS011;702;49.466;11.086;2023-08-07T02:27:17;1.50;;;0.87;;
1414;SDS011;702;49.466;11.086;2023-08-07T02:29:46;2.60;;;0.90;;
1414;SDS011;702;49.466;11.086;2023-08-07T02:32:13;1.20;;;0.70;;
1414;SDS011;702;49.466;11.086;2023-08-07T02:34:40;0.67;;;0.67;;
1414;SDS011;702;49.466;11.086;2023-08-07T02:37:07;0.73;;;0.73;;
1414;SDS011;702;49.466;11.086;2023-08-07T02:39:35;1.33;;;0.87;;
1414;SDS011;702;49.466;11.086;2023-08-07T02:42:02;1.43;;;0.90;;
1414;SDS011;702;49.466;11.086;2023-08-07T02:44:29;1.83;;;1.07;;
1414;SDS011;702;49.466;11.086;2023-08-07T02:46:58;1.53;;;1.00;;
1414;SDS011;702;49.466;11.086;2023-08-07T02:49:25;1.17;;;0.90;;
1414;SDS011;702;49.466;11.086;2023-08-07T02:51:52;1.83;;;1.20;;
1414;SDS011;702;49.466;11.086;2023-08-07T02:54:20;0.80;;;0.80;;
1414;SDS011;702;49.466;11.086;2023-08-07T02:56:47;1.30;;;1.20;;
1414;SDS011;702;49.466;11.086;2023-08-07T02:59:15;1.50;;;1.03;;
1414;SDS011;702;49.466;11.086;2023-08-07T03:01:42;1.03;;;1.03;;
1414;SDS011;702;49.466;11.086;2023-08-07T03:04:11;1.33;;;1.23;;
1414;SDS011;702;49.466;11.086;2023-08-07T03:06:38;0.97;;;0.97;;
1414;SDS011;702;49.466;11.086;2023-08-07T03:09:06;1.40;;;1.27;;
1414;SDS011;702;49.466;11.086;2023-08-07T03:11:33;2.07;;;1.30;;
1414;SDS011;702;49.466;11.086;2023-08-07T03:14:00;1.07;;;1.07;;
1414;SDS011;702;49.466;11.086;2023-08-07T03:16:28;1.57;;;1.07;;
1414;SDS011;702;49.466;11.086;2023-08-07T03:18:55;3.60;;;1.40;;
1414;SDS011;702;49.466;11.086;2023-08-07T03:21:24;2.43;;;1.40;;
1414;SDS011;702;49.466;11.086;2023-08-07T03:23:52;1.63;;;1.53;;
1414;SDS011;702;49.466;11.086;2023-08-07T03:26:19;1.40;;;1.17;;
1414;SDS011;702;49.466;11.086;2023-08-07T03:28:46;3.43;;;1.60;;
1414;SDS011;702;49.466;11.086;2023-08-07T03:31:14;5.10;;;1.60;;
1414;SDS011;702;49.466;11.086;2023-08-07T03:33:41;1.40;;;1.20;;
1414;SDS011;702;49.466;11.086;2023-08-07T03:36:09;2.40;;;2.07;;
1414;SDS011;702;49.466;11.086;2023-08-07T03:38:37;1.70;;;1.60;;
1414;SDS011;702;49.466;11.086;2023-08-07T03:41:05;3.50;;;2.10;;
1414;SDS011;702;49.466;11.086;2023-08-07T03:43:32;2.73;;;1.60;;
1414;SDS011;702;49.466;11.086;2023-08-07T03:45:59;1.90;;;1.37;;
1414;SDS011;702;49.466;11.086;2023-08-07T03:48:26;2.10;;;1.60;;
1414;SDS011;702;49.466;11.086;2023-08-07T03:51:01;1.30;;;1.20;;
1414;SDS011;702;49.466;11.086;2023-08-07T03:53:29;3.43;;;2.17;;
1414;SDS011;702;49.466;11.086;2023-08-07T03:55:57;1.70;;;1.60;;
1414;SDS011;702;49.466;11.086;2023-08-07T03:58:25;3.37;;;2.23;;
1414;SDS011;702;49.466;11.086;2023-08-07T04:00:52;1.77;;;1.67;;
1414;SDS011;702;49.466;11.086;2023-08-07T04:03:19;2.83;;;1.80;;
1414;SDS011;702;49.466;11.086;2023-08-07T04:05:47;3.70;;;2.20;;
1414;SDS011;702;49.466;11.086;2023-08-07T04:08:18;2.60;;;1.63;;
1414;SDS011;702;49.466;11.086;2023-08-07T04:10:46;5.10;;;2.20;;
1414;SDS011;702;49.466;11.086;2023-08-07T04:13:26;2.03;;;1.70;;
1414;SDS011;702;49.466;11.086;2023-08-07T04:15:54;2.73;;;2.30;;
1414;SDS011;702;49.466;11.086;2023-08-07T04:18:21;1.93;;;1.70;;
1414;SDS011;702;49.466;11.086;2023-08-07T04:20:49;2.67;;;1.83;;
1414;SDS011;702;49.466;11.086;2023-08-07T04:23:17;2.80;;;2.10;;
1414;SDS011;702;49.466;11.086;2023-08-07T04:25:44;3.40;;;2.30;;
1414;SDS011;702;49.466;11.086;2023-08-07T04:28:14;2.93;;;2.23;;
1414;SDS011;702;49.466;11.086;2023-08-07T04:30:42;2.23;;;2.03;;
1414;SDS011;702;49.466;11.086;2023-08-07T04:33:10;2.20;;;2.00;;
1414;SDS011;702;49.466;11.086;2023-08-07T04:35:38;2.70;;;2.37;;
1414;SDS011;702;49.466;11.086;2023-08-07T04:38:05;3.60;;;2.17;;
1414;SDS011;702;49.466;11.086;2023-08-07T04:40:32;5.03;;;2.33;;
1414;SDS011;702;49.466;11.086;2023-08-07T04:43:00;3.83;;;2.50;;
1414;SDS011;702;49.466;11.086;2023-08-07T04:45:28;3.30;;;2.50;;
1414;SDS011;702;49.466;11.086;2023-08-07T04:47:56;6.67;;;2.30;;
1414;SDS011;702;49.466;11.086;2023-08-07T04:50:23;3.20;;;1.77;;
1414;SDS011;702;49.466;11.086;2023-08-07T04:52:50;3.63;;;2.00;;
1414;SDS011;702;49.466;11.086;2023-08-07T04:55:18;2.57;;;2.20;;
1414;SDS011;702;49.466;11.086;2023-08-07T04:57:45;4.70;;;2.80;;
1414;SDS011;702;49.466;11.086;2023-08-07T05:00:12;5.10;;;2.20;;
1414;SDS011;702;49.466;11.086;2023-08-07T05:02:42;3.43;;;2.17;;
1414;SDS011;702;49.466;11.086;2023-08-07T05:05:09;2.40;;;2.20;;
1414;SDS011;702;49.466;11.086;2023-08-07T05:07:37;8.53;;;3.00;;
1414;SDS011;702;49.466;11.086;2023-08-07T05:10:04;3.87;;;2.67;;
1414;SDS011;702;49.466;11.086;2023-08-07T05:12:33;2.83;;;2.20;;
1414;SDS011;702;49.466;11.086;2023-08-07T05:15:00;3.73;;;2.20;;
1414;SDS011;702;49.466;11.086;2023-08-07T05:17:27;2.20;;;2.00;;
1414;SDS011;702;49.466;11.086;2023-08-07T05:19:55;6.07;;;2.73;;
1414;SDS011;702;49.466;11.086;2023-08-07T05:22:23;2.50;;;1.83;;
1414;SDS011;702;49.466;11.086;2023-08-07T05:24:50;3.50;;;2.57;;
1414;SDS011;702;49.466;11.086;2023-08-07T05:27:17;5.43;;;2.70;;
1414;SDS011;702;49.466;11.086;2023-08-07T05:29:45;4.63;;;2.60;;
1414;SDS011;702;49.466;11.086;2023-08-07T05:32:12;2.00;;;1.80;;
1414;SDS011;702;49.466;11.086;2023-08-07T05:34:40;3.70;;;2.33;;
1414;SDS011;702;49.466;11.086;2023-08-07T05:37:09;4.30;;;2.07;;
1414;SDS011;702;49.466;11.086;2023-08-07T05:39:37;4.10;;;2.17;;
1414;SDS011;702;49.466;11.086;2023-08-07T05:42:04;3.10;;;2.57;;
1414;SDS011;702;49.466;11.086;2023-08-07T05:44:32;4.93;;;2.33;;
1414;SDS011;702;49.466;11.086;2023-08-07T05:47:00;7.70;;;2.97;;
1414;SDS011;702;49.466;11.086;2023-08-07T05:49:27;6.30;;;3.57;;
1414;SDS011;702;49.466;11.086;2023-08-07T05:51:54;4.13;;;2.50;;
1414;SDS011;702;49.466;11.086;2023-08-07T05:54:23;3.43;;;2.50;;
1414;SDS011;702;49.466;11.086;2023-08-07T05:56:50;2.80;;;2.00;;
1414;SDS011;702;49.466;11.086;2023-08-07T05:59:17;1.73;;;1.63;;
1414;SDS011;702;49.466;11.086;2023-08-07T06:01:44;2.07;;;1.87;;
1414;SDS011;702;49.466;11.086;2023-08-07T06:04:12;1.87;;;1.77;;
1414;SDS011;702;49.466;11.086;2023-08-07T06:06:39;3.50;;;1.87;;
1414;SDS011;702;49.466;11.086;2023-08-07T06:09:08;4.90;;;2.37;;
1414;SDS011;702;49.466;11.086;2023-08-07T06:11:36;4.20;;;2.30;;
1414;SDS011;702;49.466;11.086;2023-08-07T06:14:03;3.63;;;2.10;;
1414;SDS011;702;49.466;11.086;2023-08-07T06:16:31;1.90;;;1.70;;
1414;SDS011;702;49.466;11.086;2023-08-07T06:18:58;4.50;;;2.20;;
1414;SDS011;702;49.466;11.086;2023-08-07T06:21:25;4.63;;;2.20;;
1414;SDS011;702;49.466;11.086;2023-08-07T06:23:54;4.20;;;2.23;;
1414;SDS011;702;49.466;11.086;2023-08-07T06:26:21;3.70;;;2.10;;
1414;SDS011;702;49.466;11.086;2023-08-07T06:28:50;3.97;;;2.33;;
1414;SDS011;702;49.466;11.086;2023-08-07T06:31:17;2.13;;;1.63;;
1414;SDS011;702;49.466;11.086;2023-08-07T06:33:44;3.27;;;1.70;;
1414;SDS011;702;49.466;11.086;2023-08-07T06:36:15;2.57;;;2.37;;
1414;SDS011;702;49.466;11.086;2023-08-07T06:38:43;2.30;;;2.10;;
1414;SDS011;702;49.466;11.086;2023-08-07T06:41:10;3.50;;;2.17;;
1414;SDS011;702;49.466;11.086;2023-08-07T06:43:38;2.50;;;1.90;;
1414;SDS011;702;49.466;11.086;2023-08-07T06:46:07;2.37;;;2.17;;
1414;SDS011;702;49.466;11.086;2023-08-07T06:48:35;3.83;;;2.20;;
1414;SDS011;702;49.466;11.086;2023-08-07T06:51:04;2.50;;;1.57;;
1414;SDS011;702;49.466;11.086;2023-08-07T06:53:32;3.70;;;1.73;;
1414;SDS011;702;49.466;11.086;2023-08-07T06:56:03;2.27;;;2.00;;
1414;SDS011;702;49.466;11.086;2023-08-07T06:58:34;2.83;;;2.00;;
1414;SDS011;702;49.466;11.086;2023-08-07T07:01:01;2.87;;;2.40;;
1414;SDS011;702;49.466;11.086;2023-08-07T07:03:30;2.60;;;2.30;;
1414;SDS011;702;49.466;11.086;2023-08-07T07:05:57;1.93;;;1.70;;
1414;SDS011;702;49.466;11.086;2023-08-07T07:08:24;2.13;;;1.90;;
1414;SDS011;702;49.466;11.086;2023-08-07T07:10:52;3.70;;;2.30;;
1414;SDS011;702;49.466;11.086;2023-08-07T07:13:19;3.70;;;2.43;;
1414;SDS011;702;49.466;11.086;2023-08-07T07:15:52;2.23;;;1.43;;
1414;SDS011;702;49.466;11.086;2023-08-07T07:18:20;1.93;;;1.83;;
1414;SDS011;702;49.466;11.086;2023-08-07T07:20:55;3.63;;;2.20;;
1414;SDS011;702;49.466;11.086;2023-08-07T07:23:27;7.00;;;1.97;;
1414;SDS011;702;49.466;11.086;2023-08-07T07:25:55;3.63;;;1.90;;
1414;SDS011;702;49.466;11.086;2023-08-07T07:28:23;2.80;;;2.43;;
1414;SDS011;702;49.466;11.086;2023-08-07T07:30:50;4.33;;;2.10;;
1414;SDS011;702;49.466;11.086;2023-08-07T07:33:18;2.57;;;1.80;;
1414;SDS011;702;49.466;11.086;2023-08-07T07:35:45;3.33;;;2.30;;
1414;SDS011;702;49.466;11.086;2023-08-07T07:38:15;2.83;;;2.00;;
1414;SDS011;702;49.466;11.086;2023-08-07T07:40:43;3.80;;;2.07;;
1414;SDS011;702;49.466;11.086;2023-08-07T07:43:10;3.70;;;2.37;;
1414;SDS011;702;49.466;11.086;2023-08-07T07:45:38;5.03;;;2.00;;
1414;SDS011;702;49.466;11.086;2023-08-07T07:48:07;4.93;;;2.40;;
1414;SDS011;702;49.466;11.086;2023-08-07T07:50:36;2.37;;;2.03;;
1414;SDS011;702;49.466;11.086;2023-08-07T07:53:04;3.20;;;2.47;;
1414;SDS011;702;49.466;11.086;2023-08-07T07:55:33;4.13;;;2.20;;
1414;SDS011;702;49.466;11.086;2023-08-07T07:58:01;2.67;;;1.73;;
1414;SDS011;702;49.466;11.086;2023-08-07T08:00:28;4.57;;;2.13;;
1414;SDS011;702;49.466;11.086;2023-08-07T08:02:56;2.77;;;1.83;;
1414;SDS011;702;49.466;11.086;2023-08-07T08:05:24;4.20;;;1.83;;
1414;SDS011;702;49.466;11.086;2023-08-07T08:07:52;3.90;;;2.13;;
1414;SDS011;702;49.466;11.086;2023-08-07T08:10:19;4.00;;;2.27;;
1414;SDS011;702;49.466;11.086;2023-08-07T08:12:49;4.80;;;2.37;;
1414;SDS011;702;49.466;11.086;2023-08-07T08:15:16;3.50;;;2.40;;
1414;SDS011;702;49.466;11.086;2023-08-07T08:17:46;2.20;;;2.00;;
1414;SDS011;702;49.466;11.086;2023-08-07T08:20:14;3.80;;;2.40;;
1414;SDS011;702;49.466;11.086;2023-08-07T08:22:45;3.37;;;2.50;;
1414;SDS011;702;49.466;11.086;2023-08-07T08:25:13;3.20;;;2.10;;
1414;SDS011;702;49.466;11.086;2023-08-07T08:27:41;4.10;;;2.57;;
1414;SDS011;702;49.466;11.086;2023-08-07T08:30:12;3.27;;;2.50;;
1414;SDS011;702;49.466;11.086;2023-08-07T08:32:40;3.37;;;2.13;;
1414;SDS011;702;49.466;11.086;2023-08-07T08:35:11;3.77;;;2.17;;
1414;SDS011;702;49.466;11.086;2023-08-07T08:37:41;2.13;;;1.70;;
1414;SDS011;702;49.466;11.086;2023-08-07T08:40:09;4.10;;;2.60;;
1414;SDS011;702;49.466;11.086;2023-08-07T08:42:43;2.27;;;1.70;;
1414;SDS011;702;49.466;11.086;2023-08-07T08:45:14;4.77;;;2.20;;
1414;SDS011;702;49.466;11.086;2023-08-07T08:47:42;3.07;;;2.30;;
1414;SDS011;702;49.466;11.086;2023-08-07T08:50:12;2.40;;;2.20;;
1414;SDS011;702;49.466;11.086;2023-08-07T08:52:41;2.73;;;2.40;;
1414;SDS011;702;49.466;11.086;2023-08-07T08:55:11;2.40;;;1.87;;
1414;SDS011;702;49.466;11.086;2023-08-07T08:57:40;3.50;;;2.17;;
1414;SDS011;702;49.466;11.086;2023-08-07T09:00:07;2.57;;;1.93;;
1414;SDS011;702;49.466;11.086;2023-08-07T09:02:49;2.00;;;1.90;;
1414;SDS011;702;49.466;11.086;2023-08-07T09:05:27;4.57;;;1.30;;
1414;SDS011;702;49.466;11.086;2023-08-07T09:08:09;2.33;;;2.00;;
1414;SDS011;702;49.466;11.086;2023-08-07T09:10:40;2.00;;;1.80;;
1414;SDS011;702;49.466;11.086;2023-08-07T09:13:09;2.40;;;1.97;;
1414;SDS011;702;49.466;11.086;2023-08-07T09:15:41;2.53;;;1.70;;
1414;SDS011;702;49.466;11.086;2023-08-07T09:18:18;3.63;;;1.93;;
1414;SDS011;702;49.466;11.086;2023-08-07T09:20:47;2.70;;;2.20;;
1414;SDS011;702;49.466;11.086;2023-08-07T09:23:18;4.03;;;2.10;;
1414;SDS011;702;49.466;11.086;2023-08-07T09:25:46;1.90;;;1.80;;
1414;SDS011;702;49.466;11.086;2023-08-07T09:28:14;6.67;;;1.60;;
1414;SDS011;702;49.466;11.086;2023-08-07T09:30:41;2.00;;;1.90;;
1414;SDS011;702;49.466;11.086;2023-08-07T09:33:09;2.20;;;1.67;;
1414;SDS011;702;49.466;11.086;2023-08-07T09:35:39;2.30;;;1.80;;
1414;SDS011;702;49.466;11.086;2023-08-07T09:38:06;3.50;;;1.70;;
1414;SDS011;702;49.466;11.086;2023-08-07T09:40:37;1.90;;;1.70;;
1414;SDS011;702;49.466;11.086;2023-08-07T09:43:05;2.30;;;1.97;;
1414;SDS011;702;49.466;11.086;2023-08-07T09:45:34;2.07;;;1.67;;
1414;SDS011;702;49.466;11.086;2023-08-07T09:48:02;1.50;;;1.40;;
1414;SDS011;702;49.466;11.086;2023-08-07T09:50:33;2.93;;;1.70;;
1414;SDS011;702;49.466;11.086;2023-08-07T09:53:02;2.27;;;1.50;;
1414;SDS011;702;49.466;11.086;2023-08-07T09:55:30;3.13;;;1.80;;
1414;SDS011;702;49.466;11.086;2023-08-07T09:57:59;3.33;;;1.70;;
1414;SDS011;702;49.466;11.086;2023-08-07T10:00:28;1.80;;;1.70;;
1414;SDS011;702;49.466;11.086;2023-08-07T10:03:01;2.17;;;1.70;;
1414;SDS011;702;49.466;11.086;2023-08-07T10:05:29;1.47;;;1.37;;
1414;SDS011;702;49.466;11.086;2023-08-07T10:07:59;1.67;;;1.57;;
1414;SDS011;702;49.466;11.086;2023-08-07T10:10:29;2.70;;;1.57;;
1414;SDS011;702;49.466;11.086;2023-08-07T10:12:59;1.67;;;1.30;;
1414;SDS011;702;49.466;11.086;2023-08-07T10:15:27;4.37;;;1.80;;
1414;SDS011;702;49.466;11.086;2023-08-07T10:17:55;2.83;;;1.90;;
1414;SDS011;702;49.466;11.086;2023-08-07T10:20:23;4.33;;;2.47;;
1414;SDS011;702;49.466;11.086;2023-08-07T10:22:54;2.00;;;1.50;;
1414;SDS011;702;49.466;11.086;2023-08-07T10:25:28;2.20;;;1.73;;
1414;SDS011;702;49.466;11.086;2023-08-07T10:27:56;1.80;;;1.63;;
1414;SDS011;702;49.466;11.086;2023-08-07T10:30:25;2.10;;;1.20;;
1414;SDS011;702;49.466;11.086;2023-08-07T10:32:54;2.27;;;1.70;;
1414;SDS011;702;49.466;11.086;2023-08-07T10:35:24;1.60;;;1.50;;
1414;SDS011;702;49.466;11.086;2023-08-07T10:37:52;1.57;;;1.47;;
1414;SDS011;702;49.466;11.086;2023-08-07T10:40:20;2.00;;;1.10;;
1414;SDS011;702;49.466;11.086;2023-08-07T10:42:59;2.10;;;1.37;;
1414;SDS011;702;49.466;11.086;2023-08-07T10:45:40;2.10;;;1.53;;
1414;SDS011;702;49.466;11.086;2023-08-07T10:48:08;2.33;;;1.60;;
1414;SDS011;702;49.466;11.086;2023-08-07T10:50:51;1.67;;;1.50;;
1414;SDS011;702;49.466;11.086;2023-08-07T10:53:29;1.70;;;1.60;;
1414;SDS011;702;49.466;11.086;2023-08-07T10:55:58;1.97;;;1.40;;
1414;SDS011;702;49.466;11.086;2023-08-07T10:58:33;2.47;;;1.70;;
1414;SDS011;702;49.466;11.086;2023-08-07T11:01:15;1.83;;;1.67;;
1414;SDS011;702;49.466;11.086;2023-08-07T11:03:49;2.00;;;1.90;;
1414;SDS011;702;49.466;11.086;2023-08-07T11:06:23;2.30;;;1.80;;
1414;SDS011;702;49.466;11.086;2023-08-07T11:08:53;3.63;;;1.80;;
1414;SDS011;702;49.466;11.086;2023-08-07T11:11:20;3.53;;;2.10;;
1414;SDS011;702;49.466;11.086;2023-08-07T11:13:57;2.10;;;1.90;;
1414;SDS011;702;49.466;11.086;2023-08-07T11:16:27;1.60;;;1.47;;
1414;SDS011;702;49.466;11.086;2023-08-07T11:18:55;2.57;;;2.20;;
1414;SDS011;702;49.466;11.086;2023-08-07T11:21:23;2.83;;;1.70;;
1414;SDS011;702;49.466;11.086;2023-08-07T11:23:52;3.90;;;1.90;;
1414;SDS011;702;49.466;11.086;2023-08-07T11:26:22;2.03;;;1.70;;
1414;SDS011;702;49.466;11.086;2023-08-07T11:28:52;2.00;;;1.80;;
1414;SDS011;702;49.466;11.086;2023-08-07T11:31:20;5.07;;;1.80;;
1414;SDS011;702;49.466;11.086;2023-08-07T11:33:50;2.93;;;1.90;;
1414;SDS011;702;49.466;11.086;2023-08-07T11:36:22;1.70;;;1.60;;
1414;SDS011;702;49.466;11.086;2023-08-07T11:38:50;1.67;;;1.57;;
1414;SDS011;702;49.466;11.086;2023-08-07T11:41:19;1.60;;;1.50;;
1414;SDS011;702;49.466;11.086;2023-08-07T11:43:46;1.93;;;1.50;;
1414;SDS011;702;49.466;11.086;2023-08-07T11:46:16;1.63;;;1.53;;
1414;SDS011;702;49.466;11.086;2023-08-07T11:48:43;3.40;;;1.77;;
1414;SDS011;702;49.466;11.086;2023-08-07T11:51:11;3.67;;;1.90;;
1414;SDS011;702;49.466;11.086;2023-08-07T11:53:41;1.73;;;1.50;;
1414;SDS011;702;49.466;11.086;2023-08-07T11:56:10;1.97;;;1.77;;
1414;SDS011;702;49.466;11.086;2023-08-07T11:58:40;1.60;;;1.43;;
1414;SDS011;702;49.466;11.086;2023-08-07T12:01:11;2.53;;;1.40;;
1414;SDS011;702;49.466;11.086;2023-08-07T12:03:43;1.80;;;1.70;;
1414;SDS011;702;49.466;11.086;2023-08-07T12:06:17;1.80;;;1.40;;
1414;SDS011;702;49.466;11.086;2023-08-07T12:08:47;1.73;;;1.40;;
1414;SDS011;702;49.466;11.086;2023-08-07T12:11:17;2.90;;;1.70;;
1414;SDS011;702;49.466;11.086;2023-08-07T12:13:46;2.67;;;1.60;;
1414;SDS011;702;49.466;11.086;2023-08-07T12:16:14;2.70;;;1.80;;
1414;SDS011;702;49.466;11.086;2023-08-07T12:18:45;2.30;;;1.53;;
1414;SDS011;702;49.466;11.086;2023-08-07T12:21:15;1.93;;;1.80;;
1414;SDS011;702;49.466;11.086;2023-08-07T12:23:45;3.27;;;1.83;;
1414;SDS011;702;49.466;11.086;2023-08-07T12:26:17;2.73;;;1.23;;
1414;SDS011;702;49.466;11.086;2023-08-07T12:28:45;2.37;;;1.80;;
1414;SDS011;702;49.466;11.086;2023-08-07T12:31:13;2.37;;;1.37;;
1414;SDS011;702;49.466;11.086;2023-08-07T12:33:41;1.40;;;1.30;;
1414;SDS011;702;49.466;11.086;2023-08-07T12:36:11;2.27;;;1.60;;
1414;SDS011;702;49.466;11.086;2023-08-07T12:38:40;1.70;;;1.60;;
1414;SDS011;702;49.466;11.086;2023-08-07T12:41:07;1.40;;;1.20;;
1414;SDS011;702;49.466;11.086;2023-08-07T12:43:36;1.90;;;1.50;;
1414;SDS011;702;49.466;11.086;2023-08-07T12:46:03;3.23;;;1.63;;
1414;SDS011;702;49.466;11.086;2023-08-07T12:48:30;4.10;;;1.60;;
1414;SDS011;702;49.466;11.086;2023-08-07T12:51:06;1.10;;;0.83;;
1414;SDS011;702;49.466;11.086;2023-08-07T12:53:39;1.67;;;1.57;;
1414;SDS011;702;49.466;11.086;2023-08-07T12:56:07;1.93;;;1.10;;
1414;SDS011;702;49.466;11.086;2023-08-07T12:58:34;2.30;;;1.63;;
1414;SDS011;702;49.466;11.086;2023-08-07T13:01:02;2.03;;;1.30;;
1414;SDS011;702;49.466;11.086;2023-08-07T13:03:30;2.10;;;1.90;;
1414;SDS011;702;49.466;11.086;2023-08-07T13:05:58;2.17;;;1.30;;
1414;SDS011;702;49.466;11.086;2023-08-07T13:08:26;1.60;;;1.50;;
1414;SDS011;702;49.466;11.086;2023-08-07T13:10:55;2.50;;;1.40;;
1414;SDS011;702;49.466;11.086;2023-08-07T13:13:23;1.33;;;1.23;;
1414;SDS011;702;49.466;11.086;2023-08-07T13:15:50;3.47;;;1.53;;
1414;SDS011;702;49.466;11.086;2023-08-07T13:18:17;2.43;;;1.40;;
1414;SDS011;702;49.466;11.086;2023-08-07T13:20:46;2.33;;;1.30;;
1414;SDS011;702;49.466;11.086;2023-08-07T13:23:14;2.20;;;1.27;;
1414;SDS011;702;49.466;11.086;2023-08-07T13:25:42;1.70;;;1.60;;
1414;SDS011;702;49.466;11.086;2023-08-07T13:28:11;1.60;;;1.40;;
1414;SDS011;702;49.466;11.086;2023-08-07T13:30:38;2.10;;;1.60;;
1414;SDS011;702;49.466;11.086;2023-08-07T13:33:06;1.83;;;1.57;;
1414;SDS011;702;49.466;11.086;2023-08-07T13:35:34;1.87;;;1.67;;
1414;SDS011;702;49.466;11.086;2023-08-07T13:38:01;3.23;;;1.97;;
1414;SDS011;702;49.466;11.086;2023-08-07T13:40:31;3.50;;;1.50;;
1414;SDS011;702;49.466;11.086;2023-08-07T13:42:58;2.10;;;1.00;;
1414;SDS011;702;49.466;11.086;2023-08-07T13:45:34;2.70;;;1.60;;
1414;SDS011;702;49.466;11.086;2023-08-07T13:48:03;1.57;;;1.47;;
1414;SDS011;702;49.466;11.086;2023-08-07T13:50:34;2.00;;;1.40;;
1414;SDS011;702;49.466;11.086;2023-08-07T13:53:05;1.17;;;1.07;;
1414;SDS011;702;49.466;11.086;2023-08-07T13:55:32;1.40;;;1.30;;
1414;SDS011;702;49.466;11.086;2023-08-07T13:58:00;1.20;;;1.10;;
1414;SDS011;702;49.466;11.086;2023-08-07T14:00:28;1.90;;;1.30;;
1414;SDS011;702;49.466;11.086;2023-08-07T14:02:58;2.80;;;1.40;;
1414;SDS011;702;49.466;11.086;2023-08-07T14:05:25;2.30;;;1.43;;
1414;SDS011;702;49.466;11.086;2023-08-07T14:07:53;1.40;;;1.13;;
1414;SDS011;702;49.466;11.086;2023-08-07T14:10:22;1.73;;;1.27;;
1414;SDS011;702;49.466;11.086;2023-08-07T14:12:50;2.17;;;1.40;;
1414;SDS011;702;49.466;11.086;2023-08-07T14:15:20;2.47;;;1.43;;
1414;SDS011;702;49.466;11.086;2023-08-07T14:17:48;4.47;;;2.43;;
1414;SDS011;702;49.466;11.086;2023-08-07T14:20:19;2.10;;;1.87;;
1414;SDS011;702;49.466;11.086;2023-08-07T14:22:48;2.67;;;1.60;;
1414;SDS011;702;49.466;11.086;2023-08-07T14:25:16;1.67;;;1.33;;
1414;SDS011;702;49.466;11.086;2023-08-07T14:27:43;2.30;;;1.93;;
1414;SDS011;702;49.466;11.086;2023-08-07T14:30:12;2.17;;;1.97;;
1414;SDS011;702;49.466;11.086;2023-08-07T14:32:40;2.97;;;1.60;;
1414;SDS011;702;49.466;11.086;2023-08-07T14:35:08;1.90;;;1.40;;
1414;SDS011;702;49.466;11.086;2023-08-07T14:37:38;2.33;;;2.07;;
1414;SDS011;702;49.466;11.086;2023-08-07T14:40:06;1.63;;;1.53;;
1414;SDS011;702;49.466;11.086;2023-08-07T14:42:35;3.47;;;1.80;;
1414;SDS011;702;49.466;11.086;2023-08-07T14:45:03;3.97;;;2.10;;
1414;SDS011;702;49.466;11.086;2023-08-07T14:47:32;3.73;;;2.50;;
1414;SDS011;702;49.466;11.086;2023-08-07T14:50:00;3.13;;;1.80;;
1414;SDS011;702;49.466;11.086;2023-08-07T14:52:28;3.07;;;2.13;;
1414;SDS011;702;49.466;11.086;2023-08-07T14:54:57;4.07;;;2.27;;
1414;SDS011;702;49.466;11.086;2023-08-07T14:57:27;1.87;;;1.67;;
1414;SDS011;702;49.466;11.086;2023-08-07T15:00:01;2.57;;;1.80;;
1414;SDS011;702;49.466;11.086;2023-08-07T15:02:38;4.67;;;1.70;;
1414;SDS011;702;49.466;11.086;2023-08-07T15:05:07;2.57;;;1.70;;
1414;SDS011;702;49.466;11.086;2023-08-07T15:07:40;3.17;;;1.60;;
1414;SDS011;702;49.466;11.086;2023-08-07T15:10:09;2.20;;;1.73;;
1414;SDS011;702;49.466;11.086;2023-08-07T15:12:38;3.07;;;1.80;;
1414;SDS011;702;49.466;11.086;2023-08-07T15:15:08;3.43;;;1.63;;
1414;SDS011;702;49.466;11.086;2023-08-07T15:17:37;1.83;;;1.40;;
1414;SDS011;702;49.466;11.086;2023-08-07T15:20:06;2.27;;;1.87;;
1414;SDS011;702;49.466;11.086;2023-08-07T15:22:36;2.77;;;1.83;;
1414;SDS011;702;49.466;11.086;2023-08-07T15:25:17;3.03;;;1.63;;